This is the latest recevied weather packets stored in our database for station/object KM4CNW. If no packets are shown the sender has not sent any weather packets the latest 1 day(s).
| Time | Temp. | Humidity | Pressure | Rain* | Wind** | Luminosity | Snow |
|---|---|---|---|---|---|---|---|
| 1778016738 | 26.67° C | 32% | 1007.9 hPa | 0 mm | 1.34 m/s, 73° | 245 W/m² | - |
| 1778016434 | 26.67° C | 32% | 1007.8 hPa | 0 mm | 3.58 m/s, 330° | 340 W/m² | - |
| 1778016132 | 27.22° C | 31% | 1007.8 hPa | 0 mm | 1.79 m/s, 328° | 461 W/m² | - |
| 1778015828 | 26.67° C | 32% | 1007.6 hPa | 0 mm | 1.79 m/s, 343° | 489 W/m² | - |
| 1778015526 | 27.22° C | 31% | 1007.8 hPa | 0 mm | 3.58 m/s, 329° | 521 W/m² | - |
| 1778015222 | 27.22° C | 32% | 1008 hPa | 0 mm | 0.89 m/s, 133° | 504 W/m² | - |
| 1778014919 | 26.67° C | 31% | 1007.9 hPa | 0 mm | 1.79 m/s, 39° | 506 W/m² | - |
| 1778014616 | 26.67° C | 31% | 1007.9 hPa | 0 mm | 0.89 m/s, 247° | 548 W/m² | - |
| 1778014314 | 26.67° C | 31% | 1008.1 hPa | 0 mm | 0.89 m/s, 240° | 539 W/m² | - |
| 1778014011 | 26.67° C | 31% | 1007.9 hPa | 0 mm | 0.89 m/s, 334° | 584 W/m² | - |
| 1778013709 | 26.11° C | 33% | 1008 hPa | 0 mm | 1.34 m/s, 313° | 592 W/m² | - |
| 1778013406 | 26.11° C | 33% | 1008.2 hPa | 0 mm | 0.89 m/s, 307° | 543 W/m² | - |
| 1778013102 | 25.56° C | 34% | 1008.3 hPa | 0 mm | 4.47 m/s, 315° | 159 W/m² | - |
| 1778012798 | 26.11° C | 33% | 1008.2 hPa | 0 mm | 3.13 m/s, 330° | 540 W/m² | - |
| 1778012494 | 26.11° C | 34% | 1008.3 hPa | 0 mm | 2.24 m/s, 302° | 549 W/m² | - |
| 1778012191 | 26.11° C | 33% | 1008.1 hPa | 0 mm | 5.36 m/s, 335° | 584 W/m² | - |
| 1778011889 | 26.67° C | 33% | 1008.1 hPa | 0 mm | 1.79 m/s, 329° | 692 W/m² | - |
| 1778011587 | 26.11° C | 33% | 1008.2 hPa | 0 mm | 0.89 m/s, 22° | 207 W/m² | - |
| 1778011284 | 26.67° C | 32% | 1008.1 hPa | 0 mm | 1.34 m/s, 115° | 691 W/m² | - |
| 1778010980 | 27.22° C | 30% | 1008.2 hPa | 0 mm | 4.02 m/s, 330° | 725 W/m² | - |
| 1778010677 | 26.67° C | 31% | 1008.3 hPa | 0 mm | 2.68 m/s, 338° | 763 W/m² | - |
| 1778010374 | 26.11° C | 32% | 1008.4 hPa | 0 mm | 1.34 m/s, 316° | 681 W/m² | - |
| 1778010070 | 26.67° C | 30% | 1008.5 hPa | 0 mm | 3.13 m/s, 304° | 579 W/m² | - |
| 1778009767 | 27.22° C | 31% | 1008.7 hPa | 0 mm | 3.13 m/s, 316° | 782 W/m² | - |
| 1778009464 | 27.22° C | 32% | 1008.8 hPa | 0 mm | 2.68 m/s, 32° | 790 W/m² | - |
* Rain latest hour (hover to see other rain measurements)
** Current wind speed in m/s (hover to see current wind gust speed)